This is the latest recevied weather packets stored in our database for station/object N7TUG-8. If no packets are shown the sender has not sent any weather packets the latest 10 day(s).
| Time | Temp. | Humidity | Pressure | Rain* | Wind** | Luminosity | Snow |
|---|---|---|---|---|---|---|---|
| 1777253742 | 18.89° C | 37% | 1008.8 hPa | 0 mm | 1.79 m/s, 317° | - | - |
| 1777253517 | 18.89° C | 37% | 1008.7 hPa | 0 mm | 2.24 m/s, 326° | - | - |
| 1777252861 | 20° C | 37% | 1008.7 hPa | 0 mm | 1.79 m/s, 324° | - | - |
| 1777252752 | 20.56° C | 36% | 1008.6 hPa | 0 mm | 1.79 m/s, 317° | - | - |
| 1777251936 | 22.78° C | 37% | 1008.6 hPa | 0 mm | 0.45 m/s, 226° | - | - |
| 1777251887 | 22.78° C | 37% | 1008.5 hPa | 0 mm | 0.89 m/s, 239° | - | - |
| 1777251071 | 22.78° C | 36% | 1008.4 hPa | 0 mm | 0.89 m/s, 238° | - | - |
| 1777250205 | 22.78° C | 34% | 1008.3 hPa | 0 mm | 1.34 m/s, 258° | - | - |
| 1777250162 | 22.78° C | 34% | 1008.3 hPa | 0 mm | 1.34 m/s, 258° | - | - |
| 1777249381 | 21.67° C | 35% | 1008.3 hPa | 0 mm | 1.34 m/s, 306° | - | - |
| 1777249328 | 21.67° C | 35% | 1008.3 hPa | 0 mm | 1.34 m/s, 306° | - | - |
| 1777248613 | 22.78° C | 37% | 1008.4 hPa | 0 mm | 0.89 m/s, 238° | - | - |
| 1777248566 | 22.78° C | 37% | 1008.4 hPa | 0 mm | 0.89 m/s, 238° | - | - |
| 1777248447 | 22.78° C | 37% | 1008.4 hPa | 0 mm | 0.89 m/s, 238° | - | - |
| 1777247791 | 22.78° C | 38% | 1008.3 hPa | 0 mm | 0.89 m/s, 226° | - | - |
| 1777247722 | 22.78° C | 38% | 1008.3 hPa | 0 mm | 0.89 m/s, 226° | - | - |
| 1777247011 | 22.22° C | 37% | 1008.4 hPa | 0 mm | 1.34 m/s, 256° | - | - |
| 1777246887 | 22.22° C | 37% | 1008.4 hPa | 0 mm | 1.34 m/s, 256° | - | - |
| 1777246061 | 22.78° C | 37% | 1008.4 hPa | 0 mm | 0.89 m/s, 223° | - | - |
| 1777245233 | 21.67° C | 38% | 1008.5 hPa | 0 mm | 0.89 m/s, 229° | - | - |
| 1777244438 | 21.67° C | 37% | 1008.6 hPa | 0 mm | 1.34 m/s, 238° | - | - |
| 1777244386 | 21.11° C | 37% | 1008.6 hPa | 0 mm | 1.34 m/s, 255° | - | - |
| 1777243667 | 21.67° C | 37% | 1008.6 hPa | 0 mm | 1.34 m/s, 290° | - | - |
| 1777243511 | 21.11° C | 37% | 1008.6 hPa | 0 mm | 1.34 m/s, 278° | - | - |
| 1777242576 | 20° C | 39% | 1008.7 hPa | 0 mm | 1.79 m/s, 303° | - | - |
* Rain latest hour (hover to see other rain measurements)
** Current wind speed in m/s (hover to see current wind gust speed)